EA4DB Madrid ES current weather conditions

sailwx.info

Wind from 225 at 0 knots gusting 3

Air temperature 26.1° C
Dewpoint 12.2° C

Last reported at 2017-Sep-26 11:46 UTC.
Time now 2017-Sep-26 20:03 UTC

Location: N 40°25' W 003°39'.
View on Google Maps.

See reports from other nearby stations

  
Tides and Currents Weather Stations Pressure Air Temp Water Temp Dewpoint Dewpoint Depression Visibility Wind Speed Wind Dir Waves Ship Positions
date/time (UTC)wind fromknots sea level pressurealtimeterstation pressurevisibilityair tempwater tempwave heightnotes
2017-Sep-26 11:46 225 0 gusting 3 26.1
2017-Sep-26 11:35 25.0
2017-Sep-26 11:25 090 2 gusting 5 25.0
2017-Sep-26 11:15 270 26.1
2017-Sep-26 11:05 225 25.6
2017-Sep-26 10:55 315 25.6
2017-Sep-26 10:45 25.0
2017-Sep-26 10:35
2017-Sep-26 10:25 270 0 gusting 2 25.0
2017-Sep-26 10:15 25.0
2017-Sep-26 10:05 24.4
2017-Sep-26 09:55 24.4
2017-Sep-26 09:45 090 0 gusting 2 23.9
2017-Sep-26 09:35 315 0 gusting 2 22.2
2017-Sep-26 09:25 270 2 gusting 6 21.7
2017-Sep-26 09:15 315 1 gusting 2 22.2
2017-Sep-25 23:20 18.3
2017-Sep-25 23:10 18.3
2017-Sep-25 23:00 270 4 gusting 10 18.9
2017-Sep-25 22:50 270 4 gusting 9 18.9
2017-Sep-25 22:40 315 3 gusting 7 19.4
2017-Sep-25 22:30 315 5 gusting 7 19.4
2017-Sep-25 22:20 090 1 gusting 4 20.6
2017-Sep-25 12:25 315 5 gusting 10 28.3
2017-Sep-25 12:15 180 4 gusting 6 27.2
2017-Sep-25 12:05 247 1 gusting 4 27.2
2017-Sep-25 11:55 247 2 gusting 6 27.2
2017-Sep-25 11:45 090 2 gusting 4 27.8
2017-Sep-25 11:35 270 2 gusting 4 27.8
2017-Sep-25 11:25 315 0 gusting 2 26.7
2017-Sep-25 01:10 270 1 gusting 2 20.6
2017-Sep-25 01:00 225 21.1
2017-Sep-25 00:50 270 0 gusting 3 20.6
2017-Sep-25 00:40 225 20.0
2017-Sep-25 00:30 225 0 gusting 2 20.6
2017-Sep-25 00:20 270 21.7
2017-Sep-25 00:10 180 0 gusting 2 21.1
2017-Sep-25 00:00 21.1
2017-Sep-24 23:50 21.1
2017-Sep-24 23:40 225 0 gusting 2 21.7
2017-Sep-24 23:30 180 0 gusting 2 21.7
2017-Sep-24 23:20 225 0 gusting 2 21.7
2017-Sep-24 23:10 225 22.2
2017-Sep-24 23:00 202 0 gusting 2 22.2
2017-Sep-24 22:50 180 1 gusting 2 22.8